sensor_id;sensor_type;location;lat;lon;timestamp;pressure;altitude;pressure_sealevel;temperature;humidity
49825;BME280;35714;55.708;37.478;2024-02-26T00:00:59;100426.84;;;0.45;45.84
49825;BME280;35714;55.708;37.478;2024-02-26T00:03:25;100434.84;;;0.45;45.83
49825;BME280;35714;55.708;37.478;2024-02-26T00:05:50;100434.41;;;0.49;45.83
49825;BME280;35714;55.708;37.478;2024-02-26T00:08:16;100421.50;;;0.45;45.92
49825;BME280;35714;55.708;37.478;2024-02-26T00:10:41;100442.16;;;0.43;45.66
49825;BME280;35714;55.708;37.478;2024-02-26T00:13:08;100429.66;;;0.33;46.20
49825;BME280;35714;55.708;37.478;2024-02-26T00:15:33;100431.03;;;0.38;46.02
49825;BME280;35714;55.708;37.478;2024-02-26T00:18:01;100428.25;;;0.29;46.00
49825;BME280;35714;55.708;37.478;2024-02-26T00:20:26;100421.22;;;0.28;46.10
49825;BME280;35714;55.708;37.478;2024-02-26T00:22:52;100435.00;;;0.33;46.08
49825;BME280;35714;55.708;37.478;2024-02-26T00:25:17;100425.59;;;0.29;46.16
49825;BME280;35714;55.708;37.478;2024-02-26T00:27:45;100419.28;;;0.30;46.11
49825;BME280;35714;55.708;37.478;2024-02-26T00:30:11;100418.16;;;0.23;46.55
49825;BME280;35714;55.708;37.478;2024-02-26T00:32:37;100412.25;;;0.29;46.47
49825;BME280;35714;55.708;37.478;2024-02-26T00:35:03;100434.44;;;0.30;46.42
49825;BME280;35714;55.708;37.478;2024-02-26T00:37:28;100413.09;;;0.40;45.93
49825;BME280;35714;55.708;37.478;2024-02-26T00:39:54;100418.13;;;0.43;45.77
49825;BME280;35714;55.708;37.478;2024-02-26T00:42:20;100414.75;;;0.41;45.74
49825;BME280;35714;55.708;37.478;2024-02-26T00:44:45;100419.81;;;0.44;45.55
49825;BME280;35714;55.708;37.478;2024-02-26T00:47:11;100409.31;;;0.32;45.77
49825;BME280;35714;55.708;37.478;2024-02-26T00:49:37;100420.69;;;0.25;46.08
49825;BME280;35714;55.708;37.478;2024-02-26T00:52:03;100406.06;;;0.39;45.80
49825;BME280;35714;55.708;37.478;2024-02-26T00:54:28;100419.81;;;0.44;45.41
49825;BME280;35714;55.708;37.478;2024-02-26T00:56:54;100403.28;;;0.30;45.58
49825;BME280;35714;55.708;37.478;2024-02-26T00:59:19;100417.03;;;0.35;45.75
49825;BME280;35714;55.708;37.478;2024-02-26T01:01:45;100405.13;;;0.20;45.89
49825;BME280;35714;55.708;37.478;2024-02-26T01:04:11;100413.13;;;0.20;46.12
49825;BME280;35714;55.708;37.478;2024-02-26T01:06:37;100414.53;;;0.24;46.02
49825;BME280;35714;55.708;37.478;2024-02-26T01:09:02;100416.91;;;0.27;46.27
49825;BME280;35714;55.708;37.478;2024-02-26T01:11:28;100411.97;;;0.32;46.32
49825;BME280;35714;55.708;37.478;2024-02-26T01:13:54;100424.88;;;0.37;45.66
49825;BME280;35714;55.708;37.478;2024-02-26T01:16:23;100408.06;;;0.27;45.89
49825;BME280;35714;55.708;37.478;2024-02-26T01:18:48;100413.09;;;0.40;45.68
49825;BME280;35714;55.708;37.478;2024-02-26T01:21:14;100418.13;;;0.33;45.83
49825;BME280;35714;55.708;37.478;2024-02-26T01:23:40;100408.91;;;0.27;46.15
49825;BME280;35714;55.708;37.478;2024-02-26T01:26:05;100404.66;;;0.34;45.71
49825;BME280;35714;55.708;37.478;2024-02-26T01:28:31;100416.78;;;0.19;45.93
49825;BME280;35714;55.708;37.478;2024-02-26T01:30:56;100405.41;;;0.17;46.14
49825;BME280;35714;55.708;37.478;2024-02-26T01:33:22;100401.88;;;0.26;46.02
49825;BME280;35714;55.708;37.478;2024-02-26T01:35:48;100407.47;;;0.33;45.59
49825;BME280;35714;55.708;37.478;2024-02-26T01:38:13;100418.56;;;0.38;45.34
49825;BME280;35714;55.708;37.478;2024-02-26T01:40:39;100396.00;;;0.23;45.25
49825;BME280;35714;55.708;37.478;2024-02-26T01:43:04;100413.41;;;0.27;45.63
49825;BME280;35714;55.708;37.478;2024-02-26T01:45:30;100403.56;;;0.27;45.25
49825;BME280;35714;55.708;37.478;2024-02-26T01:47:56;100403.56;;;0.27;45.27
49825;BME280;35714;55.708;37.478;2024-02-26T01:50:23;100395.03;;;0.14;45.83
49825;BME280;35714;55.708;37.478;2024-02-26T01:52:50;100405.94;;;0.30;45.35
49825;BME280;35714;55.708;37.478;2024-02-26T01:55:20;100415.91;;;0.28;45.21
49825;BME280;35714;55.708;37.478;2024-02-26T01:57:48;100396.03;;;0.13;45.88
49825;BME280;35714;55.708;37.478;2024-02-26T02:00:15;100380.88;;;0.04;46.10
49825;BME280;35714;55.708;37.478;2024-02-26T02:02:42;100391.78;;;0.20;45.38
49825;BME280;35714;55.708;37.478;2024-02-26T02:05:11;100390.25;;;0.17;45.35
49825;BME280;35714;55.708;37.478;2024-02-26T02:07:37;100397.69;;;0.14;45.28
49825;BME280;35714;55.708;37.478;2024-02-26T02:10:03;100384.22;;;0.15;45.27
49825;BME280;35714;55.708;37.478;2024-02-26T02:12:29;100394.91;;;0.06;45.18
49825;BME280;35714;55.708;37.478;2024-02-26T02:14:58;100395.44;;;0.19;45.02
49825;BME280;35714;55.708;37.478;2024-02-26T02:17:24;100386.47;;;0.10;45.24
49825;BME280;35714;55.708;37.478;2024-02-26T02:19:49;100386.63;;;0.09;45.48
49825;BME280;35714;55.708;37.478;2024-02-26T02:22:15;100392.63;;;0.11;45.39
49825;BME280;35714;55.708;37.478;2024-02-26T02:24:41;100385.94;;;0.07;45.51
49825;BME280;35714;55.708;37.478;2024-02-26T02:27:06;100392.34;;;0.14;45.00
49825;BME280;35714;55.708;37.478;2024-02-26T02:29:32;100393.47;;;0.21;44.78
49825;BME280;35714;55.708;37.478;2024-02-26T02:31:57;100384.22;;;0.25;44.35
49825;BME280;35714;55.708;37.478;2024-02-26T02:34:24;100378.44;;;0.20;44.18
49825;BME280;35714;55.708;37.478;2024-02-26T02:36:54;100385.06;;;0.16;44.70
49825;BME280;35714;55.708;37.478;2024-02-26T02:39:20;100390.41;;;0.06;45.01
49825;BME280;35714;55.708;37.478;2024-02-26T02:41:46;100391.00;;;0.00;45.01
49825;BME280;35714;55.708;37.478;2024-02-26T02:44:12;100386.22;;;-0.16;45.39
49825;BME280;35714;55.708;37.478;2024-02-26T02:46:38;100389.88;;;-0.17;45.73
49825;BME280;35714;55.708;37.478;2024-02-26T02:49:04;100378.09;;;-0.05;45.14
49825;BME280;35714;55.708;37.478;2024-02-26T02:51:29;100376.22;;;0.06;44.90
49825;BME280;35714;55.708;37.478;2024-02-26T02:53:55;100370.50;;;0.01;45.06
49825;BME280;35714;55.708;37.478;2024-02-26T02:56:21;100384.81;;;-0.01;45.12
49825;BME280;35714;55.708;37.478;2024-02-26T02:58:46;100384.41;;;-0.15;45.58
49825;BME280;35714;55.708;37.478;2024-02-26T03:01:13;100376.56;;;-0.17;45.93
49825;BME280;35714;55.708;37.478;2024-02-26T03:03:38;100364.91;;;-0.16;45.40
49825;BME280;35714;55.708;37.478;2024-02-26T03:06:04;100371.06;;;-0.06;45.37
49825;BME280;35714;55.708;37.478;2024-02-26T03:08:30;100372.31;;;-0.10;45.61
49825;BME280;35714;55.708;37.478;2024-02-26T03:10:55;100376.13;;;-0.12;45.89
49825;BME280;35714;55.708;37.478;2024-02-26T03:13:23;100374.13;;;-0.01;45.24
49825;BME280;35714;55.708;37.478;2024-02-26T03:15:49;100375.53;;;0.04;45.26
49825;BME280;35714;55.708;37.478;2024-02-26T03:18:14;100395.75;;;-0.04;45.56
49825;BME280;35714;55.708;37.478;2024-02-26T03:20:40;100379.75;;;-0.04;45.39
49825;BME280;35714;55.708;37.478;2024-02-26T03:23:06;100367.69;;;-0.17;45.41
49825;BME280;35714;55.708;37.478;2024-02-26T03:25:31;100368.88;;;-0.30;45.69
49825;BME280;35714;55.708;37.478;2024-02-26T03:27:57;100373.88;;;-0.37;46.45
49825;BME280;35714;55.708;37.478;2024-02-26T03:30:22;100380.34;;;-0.39;45.78
49825;BME280;35714;55.708;37.478;2024-02-26T03:32:48;100369.41;;;-0.26;45.88
49825;BME280;35714;55.708;37.478;2024-02-26T03:35:13;100369.53;;;-0.18;45.62
49825;BME280;35714;55.708;37.478;2024-02-26T03:37:39;100370.38;;;-0.27;46.13
49825;BME280;35714;55.708;37.478;2024-02-26T03:40:05;100369.97;;;-0.32;46.04
49825;BME280;35714;55.708;37.478;2024-02-26T03:42:31;100361.00;;;-0.31;46.33
49825;BME280;35714;55.708;37.478;2024-02-26T03:44:56;100354.81;;;-0.22;46.04
49825;BME280;35714;55.708;37.478;2024-02-26T03:47:22;100364.09;;;-0.26;46.47
49825;BME280;35714;55.708;37.478;2024-02-26T03:49:48;100381.88;;;-0.07;45.39
49825;BME280;35714;55.708;37.478;2024-02-26T03:52:13;100387.06;;;-0.25;45.90
49825;BME280;35714;55.708;37.478;2024-02-26T03:54:40;100388.63;;;-0.32;45.99
49825;BME280;35714;55.708;37.478;2024-02-26T03:57:05;100367.44;;;-0.24;45.62
49825;BME280;35714;55.708;37.478;2024-02-26T03:59:31;100371.66;;;-0.31;46.05
49825;BME280;35714;55.708;37.478;2024-02-26T04:01:56;100367.84;;;-0.29;46.07
49825;BME280;35714;55.708;37.478;2024-02-26T04:04:22;100377.13;;;-0.43;46.51
49825;BME280;35714;55.708;37.478;2024-02-26T04:06:48;100378.94;;;-0.43;46.39
49825;BME280;35714;55.708;37.478;2024-02-26T04:09:14;100369.94;;;-0.52;46.50
49825;BME280;35714;55.708;37.478;2024-02-26T04:11:40;100381.47;;;-0.51;46.89
49825;BME280;35714;55.708;37.478;2024-02-26T04:14:05;100384.41;;;-0.55;47.03
49825;BME280;35714;55.708;37.478;2024-02-26T04:16:34;100377.66;;;-0.59;46.99
49825;BME280;35714;55.708;37.478;2024-02-26T04:19:01;100367.44;;;-0.63;47.42
49825;BME280;35714;55.708;37.478;2024-02-26T04:21:27;100371.94;;;-0.54;47.69
49825;BME280;35714;55.708;37.478;2024-02-26T04:23:52;100368.56;;;-0.37;46.89
49825;BME280;35714;55.708;37.478;2024-02-26T04:26:20;100373.34;;;-0.50;47.48
49825;BME280;35714;55.708;37.478;2024-02-26T04:28:46;100358.19;;;-0.40;47.19
49825;BME280;35714;55.708;37.478;2024-02-26T04:31:12;100372.06;;;-0.26;46.49
49825;BME280;35714;55.708;37.478;2024-02-26T04:33:38;100374.16;;;-0.40;47.02
49825;BME280;35714;55.708;37.478;2024-02-26T04:36:03;100368.28;;;-0.43;47.09
49825;BME280;35714;55.708;37.478;2024-02-26T04:38:29;100394.38;;;-0.47;47.11
49825;BME280;35714;55.708;37.478;2024-02-26T04:40:55;100401.09;;;-0.43;47.13
49825;BME280;35714;55.708;37.478;2024-02-26T04:43:20;100366.03;;;-0.48;47.30
49825;BME280;35714;55.708;37.478;2024-02-26T04:45:46;100386.22;;;-0.55;47.81
49825;BME280;35714;55.708;37.478;2024-02-26T04:48:11;100373.47;;;-0.42;47.54
49825;BME280;35714;55.708;37.478;2024-02-26T04:50:37;100374.88;;;-0.57;47.79
49825;BME280;35714;55.708;37.478;2024-02-26T04:53:03;100377.25;;;-0.54;47.85
49825;BME280;35714;55.708;37.478;2024-02-26T04:55:28;100373.03;;;-0.66;48.11
49825;BME280;35714;55.708;37.478;2024-02-26T04:57:54;100369.69;;;-0.49;47.92
49825;BME280;35714;55.708;37.478;2024-02-26T05:00:19;100375.00;;;-0.59;48.33
49825;BME280;35714;55.708;37.478;2024-02-26T05:02:45;100381.63;;;-0.53;48.34
49825;BME280;35714;55.708;37.478;2024-02-26T05:05:11;100386.06;;;-0.53;48.55
49825;BME280;35714;55.708;37.478;2024-02-26T05:07:41;100369.00;;;-0.61;48.69
49825;BME280;35714;55.708;37.478;2024-02-26T05:10:08;100368.00;;;-0.50;48.41
49825;BME280;35714;55.708;37.478;2024-02-26T05:12:33;100370.09;;;-0.53;48.81
49825;BME280;35714;55.708;37.478;2024-02-26T05:15:01;100372.78;;;-0.44;48.12
49825;BME280;35714;55.708;37.478;2024-02-26T05:17:28;100369.69;;;-0.49;48.42
49825;BME280;35714;55.708;37.478;2024-02-26T05:19:54;100372.19;;;-0.47;48.31
49825;BME280;35714;55.708;37.478;2024-02-26T05:22:20;100366.75;;;-0.65;48.86
49825;BME280;35714;55.708;37.478;2024-02-26T05:24:45;100358.06;;;-0.67;48.81
49825;BME280;35714;55.708;37.478;2024-02-26T05:27:11;100389.59;;;-0.33;48.68
49825;BME280;35714;55.708;37.478;2024-02-26T05:29:37;100376.28;;;-0.43;48.59
49825;BME280;35714;55.708;37.478;2024-02-26T05:32:04;100363.53;;;-0.49;48.72
49825;BME280;35714;55.708;37.478;2024-02-26T05:34:30;100368.00;;;-0.50;49.09
49825;BME280;35714;55.708;37.478;2024-02-26T05:36:56;100360.72;;;-0.38;49.04
49825;BME280;35714;55.708;37.478;2024-02-26T05:39:21;100369.81;;;-0.21;48.53
49825;BME280;35714;55.708;37.478;2024-02-26T05:41:47;100376.72;;;-0.28;48.72
49825;BME280;35714;55.708;37.478;2024-02-26T05:44:12;100362.25;;;-0.35;48.69
49825;BME280;35714;55.708;37.478;2024-02-26T05:46:38;100356.25;;;-0.38;49.40
49825;BME280;35714;55.708;37.478;2024-02-26T05:49:04;100371.38;;;-0.28;48.95
49825;BME280;35714;55.708;37.478;2024-02-26T05:51:29;100369.13;;;-0.23;48.83
49825;BME280;35714;55.708;37.478;2024-02-26T05:53:55;100381.19;;;-0.09;48.32
49825;BME280;35714;55.708;37.478;2024-02-26T05:56:22;100386.94;;;-0.14;48.39
49825;BME280;35714;55.708;37.478;2024-02-26T05:58:48;100367.44;;;-0.05;48.30
49825;BME280;35714;55.708;37.478;2024-02-26T06:01:15;100371.59;;;0.08;47.65
49825;BME280;35714;55.708;37.478;2024-02-26T06:03:41;100387.75;;;-0.04;48.19
49825;BME280;35714;55.708;37.478;2024-02-26T06:06:06;100378.66;;;-0.30;48.93
49825;BME280;35714;55.708;37.478;2024-02-26T06:08:32;100369.66;;;-0.10;48.18
49825;BME280;35714;55.708;37.478;2024-02-26T06:10:58;100382.88;;;-0.18;47.92
49825;BME280;35714;55.708;37.478;2024-02-26T06:13:24;100384.00;;;-0.40;48.80
49825;BME280;35714;55.708;37.478;2024-02-26T06:15:50;100402.22;;;-0.35;48.84
49825;BME280;35714;55.708;37.478;2024-02-26T06:18:15;100390.19;;;-0.30;48.86
49825;BME280;35714;55.708;37.478;2024-02-26T06:20:41;100391.28;;;-0.32;49.31
49825;BME280;35714;55.708;37.478;2024-02-26T06:23:07;100381.47;;;-0.42;49.42
49825;BME280;35714;55.708;37.478;2024-02-26T06:25:32;100373.88;;;-0.37;49.41
49825;BME280;35714;55.708;37.478;2024-02-26T06:27:58;100369.69;;;-0.29;49.23
49825;BME280;35714;55.708;37.478;2024-02-26T06:30:23;100378.38;;;-0.27;49.49
49825;BME280;35714;55.708;37.478;2024-02-26T06:32:49;100362.38;;;-0.08;48.74
49825;BME280;35714;55.708;37.478;2024-02-26T06:35:15;100378.81;;;-0.12;49.13
49825;BME280;35714;55.708;37.478;2024-02-26T06:37:40;100382.44;;;-0.13;48.93
49825;BME280;35714;55.708;37.478;2024-02-26T06:40:06;100380.75;;;-0.24;49.40
49825;BME280;35714;55.708;37.478;2024-02-26T06:42:32;100381.59;;;-0.14;49.20
49825;BME280;35714;55.708;37.478;2024-02-26T06:44:58;100384.81;;;-0.10;49.04
49825;BME280;35714;55.708;37.478;2024-02-26T06:47:24;100389.75;;;-0.15;49.41
49825;BME280;35714;55.708;37.478;2024-02-26T06:49:49;100398.28;;;-0.12;49.09
49825;BME280;35714;55.708;37.478;2024-02-26T06:52:15;100391.28;;;-0.13;49.25
49825;BME280;35714;55.708;37.478;2024-02-26T06:54:40;100381.72;;;-0.06;49.10
49825;BME280;35714;55.708;37.478;2024-02-26T06:57:07;100378.06;;;0.05;48.97
49825;BME280;35714;55.708;37.478;2024-02-26T06:59:32;100365.56;;;0.06;49.04
49825;BME280;35714;55.708;37.478;2024-02-26T07:01:58;100379.47;;;-0.01;49.07
49825;BME280;35714;55.708;37.478;2024-02-26T07:04:23;100372.75;;;0.05;49.20
49825;BME280;35714;55.708;37.478;2024-02-26T07:06:49;100381.53;;;0.15;49.33
49825;BME280;35714;55.708;37.478;2024-02-26T07:09:14;100372.09;;;0.31;49.24
49825;BME280;35714;55.708;37.478;2024-02-26T07:11:41;100380.66;;;0.72;47.36
49825;BME280;35714;55.708;37.478;2024-02-26T07:14:10;100371.09;;;0.79;47.44
49825;BME280;35714;55.708;37.478;2024-02-26T07:16:36;100363.16;;;0.87;46.96
49825;BME280;35714;55.708;37.478;2024-02-26T07:19:03;100373.91;;;0.78;47.50
49825;BME280;35714;55.708;37.478;2024-02-26T07:21:28;100363.09;;;0.97;46.86
49825;BME280;35714;55.708;37.478;2024-02-26T07:23:54;100368.75;;;0.94;47.22
49825;BME280;35714;55.708;37.478;2024-02-26T07:26:20;100373.19;;;1.03;47.29
49825;BME280;35714;55.708;37.478;2024-02-26T07:28:46;100350.25;;;1.11;46.88
49825;BME280;35714;55.708;37.478;2024-02-26T07:31:12;100368.72;;;1.40;46.20
49825;BME280;35714;55.708;37.478;2024-02-26T07:33:37;100383.31;;;1.46;46.27
49825;BME280;35714;55.708;37.478;2024-02-26T07:36:03;100375.84;;;1.67;45.37
49825;BME280;35714;55.708;37.478;2024-02-26T07:38:29;100373.16;;;1.67;45.40
49825;BME280;35714;55.708;37.478;2024-02-26T07:40:54;100391.44;;;1.72;45.36
49825;BME280;35714;55.708;37.478;2024-02-26T07:43:22;100377.97;;;1.82;45.57
49825;BME280;35714;55.708;37.478;2024-02-26T07:45:48;100372.13;;;2.04;45.26
49825;BME280;35714;55.708;37.478;2024-02-26T07:48:13;100374.25;;;2.19;44.33
49825;BME280;35714;55.708;37.478;2024-02-26T07:50:39;100370.88;;;2.16;44.74
49825;BME280;35714;55.708;37.478;2024-02-26T07:53:06;100378.00;;;2.34;44.54
49825;BME280;35714;55.708;37.478;2024-02-26T07:55:31;100377.75;;;2.45;44.86
49825;BME280;35714;55.708;37.478;2024-02-26T07:57:57;100378.28;;;2.83;43.73
49825;BME280;35714;55.708;37.478;2024-02-26T08:00:22;100380.97;;;2.92;43.29
49825;BME280;35714;55.708;37.478;2024-02-26T08:02:48;100360.75;;;2.97;42.89
49825;BME280;35714;55.708;37.478;2024-02-26T08:05:14;100375.56;;;2.75;43.15
49825;BME280;35714;55.708;37.478;2024-02-26T08:07:39;100372.78;;;2.59;43.46
49825;BME280;35714;55.708;37.478;2024-02-26T08:10:06;100369.81;;;2.62;43.01
49825;BME280;35714;55.708;37.478;2024-02-26T08:12:32;100356.38;;;2.53;43.27
49825;BME280;35714;55.708;37.478;2024-02-26T08:14:58;100365.22;;;2.46;43.56
49825;BME280;35714;55.708;37.478;2024-02-26T08:17:24;100370.38;;;2.39;43.63
49825;BME280;35714;55.708;37.478;2024-02-26T08:19:49;100365.91;;;2.22;44.15
49825;BME280;35714;55.708;37.478;2024-02-26T08:22:15;100365.47;;;2.34;43.69
49825;BME280;35714;55.708;37.478;2024-02-26T08:24:42;100341.72;;;2.31;43.51
49825;BME280;35714;55.708;37.478;2024-02-26T08:27:08;100361.44;;;2.30;43.41
49825;BME280;35714;55.708;37.478;2024-02-26T08:29:33;100363.78;;;2.07;44.49
49825;BME280;35714;55.708;37.478;2024-02-26T08:31:59;100360.28;;;2.07;45.15
49825;BME280;35714;55.708;37.478;2024-02-26T08:34:25;100353.34;;;2.22;44.69
49825;BME280;35714;55.708;37.478;2024-02-26T08:36:51;100355.31;;;2.46;44.59
49825;BME280;35714;55.708;37.478;2024-02-26T08:39:17;100348.53;;;2.60;43.66
49825;BME280;35714;55.708;37.478;2024-02-26T08:41:43;100338.78;;;2.94;42.60
49825;BME280;35714;55.708;37.478;2024-02-26T08:44:10;100347.06;;;3.09;42.72
49825;BME280;35714;55.708;37.478;2024-02-26T08:46:36;100337.31;;;3.07;42.88
49825;BME280;35714;55.708;37.478;2024-02-26T08:49:01;100333.13;;;3.05;43.27
49825;BME280;35714;55.708;37.478;2024-02-26T08:51:27;100334.84;;;3.22;42.38
49825;BME280;35714;55.708;37.478;2024-02-26T08:53:52;100345.91;;;3.19;42.29
49825;BME280;35714;55.708;37.478;2024-02-26T08:56:19;100330.16;;;3.33;42.38
49825;BME280;35714;55.708;37.478;2024-02-26T08:58:46;100345.25;;;3.25;42.56
49825;BME280;35714;55.708;37.478;2024-02-26T09:01:15;100335.56;;;3.49;42.57
49825;BME280;35714;55.708;37.478;2024-02-26T09:03:41;100340.25;;;3.72;42.76
49825;BME280;35714;55.708;37.478;2024-02-26T09:06:06;100334.84;;;4.21;41.16
49825;BME280;35714;55.708;37.478;2024-02-26T09:08:32;100337.84;;;4.34;40.30
49825;BME280;35714;55.708;37.478;2024-02-26T09:10:58;100338.84;;;4.33;40.14
49825;BME280;35714;55.708;37.478;2024-02-26T09:13:24;100344.88;;;4.27;39.98
49825;BME280;35714;55.708;37.478;2024-02-26T09:15:49;100341.19;;;4.28;40.23
49825;BME280;35714;55.708;37.478;2024-02-26T09:18:15;100320.72;;;4.36;40.10
49825;BME280;35714;55.708;37.478;2024-02-26T09:20:41;100334.06;;;4.60;39.41
49825;BME280;35714;55.708;37.478;2024-02-26T09:23:07;100334.41;;;4.57;39.71
49825;BME280;35714;55.708;37.478;2024-02-26T09:25:32;100326.69;;;4.62;38.90
49825;BME280;35714;55.708;37.478;2024-02-26T09:28:01;100332.09;;;4.46;39.71
49825;BME280;35714;55.708;37.478;2024-02-26T09:30:26;100336.47;;;4.47;39.94
49825;BME280;35714;55.708;37.478;2024-02-26T09:32:52;100331.97;;;4.79;38.98
49825;BME280;35714;55.708;37.478;2024-02-26T09:35:21;100333.09;;;4.53;39.76
49825;BME280;35714;55.708;37.478;2024-02-26T09:37:47;100328.34;;;4.63;39.39
49825;BME280;35714;55.708;37.478;2024-02-26T09:40:14;100343.41;;;4.73;39.22
49825;BME280;35714;55.708;37.478;2024-02-26T09:42:44;100330.72;;;4.58;39.58
49825;BME280;35714;55.708;37.478;2024-02-26T09:45:21;100332.41;;;4.59;39.79
49825;BME280;35714;55.708;37.478;2024-02-26T09:47:48;100338.41;;;4.61;39.53
49825;BME280;35714;55.708;37.478;2024-02-26T09:50:17;100323.13;;;4.70;39.30
49825;BME280;35714;55.708;37.478;2024-02-26T09:52:48;100332.56;;;4.97;38.75
49825;BME280;35714;55.708;37.478;2024-02-26T09:55:16;100322.56;;;4.83;39.23
49825;BME280;35714;55.708;37.478;2024-02-26T09:57:45;100327.00;;;4.99;39.26
49825;BME280;35714;55.708;37.478;2024-02-26T10:00:17;100335.59;;;5.26;38.41
49825;BME280;35714;55.708;37.478;2024-02-26T10:02:47;100321.50;;;5.47;38.20
49825;BME280;35714;55.708;37.478;2024-02-26T10:05:18;100323.09;;;5.56;37.71
49825;BME280;35714;55.708;37.478;2024-02-26T10:07:45;100317.53;;;5.57;37.96
49825;BME280;35714;55.708;37.478;2024-02-26T10:10:11;100312.50;;;5.77;36.94
49825;BME280;35714;55.708;37.478;2024-02-26T10:12:36;100319.34;;;5.65;37.13
49825;BME280;35714;55.708;37.478;2024-02-26T10:15:05;100326.06;;;5.61;36.52
49825;BME280;35714;55.708;37.478;2024-02-26T10:17:31;100316.53;;;5.82;37.01
49825;BME280;35714;55.708;37.478;2024-02-26T10:20:14;100337.84;;;5.83;37.09
49825;BME280;35714;55.708;37.478;2024-02-26T10:22:41;100330.34;;;5.78;36.61
49825;BME280;35714;55.708;37.478;2024-02-26T10:25:08;100316.09;;;5.47;37.17
49825;BME280;35714;55.708;37.478;2024-02-26T10:27:36;100318.22;;;5.36;37.59
49825;BME280;35714;55.708;37.478;2024-02-26T10:30:24;100319.97;;;5.67;37.21
49825;BME280;35714;55.708;37.478;2024-02-26T10:32:51;100302.25;;;5.96;36.85
49825;BME280;35714;55.708;37.478;2024-02-26T10:35:18;100309.00;;;6.30;35.95
49825;BME280;35714;55.708;37.478;2024-02-26T10:37:46;100316.06;;;6.31;36.18
49825;BME280;35714;55.708;37.478;2024-02-26T10:40:15;100299.63;;;6.41;36.16
49825;BME280;35714;55.708;37.478;2024-02-26T10:42:42;100310.41;;;6.26;36.25
49825;BME280;35714;55.708;37.478;2024-02-26T10:45:09;100303.97;;;6.27;36.34
49825;BME280;35714;55.708;37.478;2024-02-26T10:47:36;100312.91;;;6.42;36.39
49825;BME280;35714;55.708;37.478;2024-02-26T10:50:03;100306.03;;;6.55;35.89
49825;BME280;35714;55.708;37.478;2024-02-26T10:52:31;100299.16;;;6.37;36.90
49825;BME280;35714;55.708;37.478;2024-02-26T10:55:00;100295.25;;;6.55;35.55
49825;BME280;35714;55.708;37.478;2024-02-26T10:57:32;100318.25;;;6.12;36.40
49825;BME280;35714;55.708;37.478;2024-02-26T10:59:59;100284.22;;;5.82;36.55
49825;BME280;35714;55.708;37.478;2024-02-26T11:02:25;100300.88;;;5.62;36.48
49825;BME280;35714;55.708;37.478;2024-02-26T11:04:52;100298.13;;;5.24;37.60
49825;BME280;35714;55.708;37.478;2024-02-26T11:07:19;100287.97;;;5.11;38.01
49825;BME280;35714;55.708;37.478;2024-02-26T11:09:46;100278.50;;;4.92;38.67
49825;BME280;35714;55.708;37.478;2024-02-26T11:12:18;100282.28;;;5.29;38.23
49825;BME280;35714;55.708;37.478;2024-02-26T11:14:46;100278.31;;;5.25;38.26
49825;BME280;35714;55.708;37.478;2024-02-26T11:17:12;100284.63;;;5.55;38.13
49825;BME280;35714;55.708;37.478;2024-02-26T11:19:39;100275.34;;;5.96;37.40
49825;BME280;35714;55.708;37.478;2024-02-26T11:22:07;100285.97;;;6.42;36.47
49825;BME280;35714;55.708;37.478;2024-02-26T11:24:32;100279.44;;;6.52;36.23
49825;BME280;35714;55.708;37.478;2024-02-26T11:27:02;100296.44;;;6.52;36.00
49825;BME280;35714;55.708;37.478;2024-02-26T11:29:48;100284.94;;;6.43;35.73
49825;BME280;35714;55.708;37.478;2024-02-26T11:32:14;100281.41;;;6.58;35.57
49825;BME280;35714;55.708;37.478;2024-02-26T11:34:41;100287.91;;;6.19;36.25
49825;BME280;35714;55.708;37.478;2024-02-26T11:37:12;100290.41;;;6.05;36.88
49825;BME280;35714;55.708;37.478;2024-02-26T11:39:42;100284.22;;;5.82;37.56
49825;BME280;35714;55.708;37.478;2024-02-26T11:42:08;100288.22;;;5.86;37.21
49825;BME280;35714;55.708;37.478;2024-02-26T11:44:35;100275.22;;;5.89;37.70
49825;BME280;35714;55.708;37.478;2024-02-26T11:47:28;100263.31;;;6.22;37.10
49825;BME280;35714;55.708;37.478;2024-02-26T11:49:54;100261.66;;;6.87;35.86
49825;BME280;35714;55.708;37.478;2024-02-26T11:52:19;100256.59;;;7.42;34.88
49825;BME280;35714;55.708;37.478;2024-02-26T11:54:48;100259.13;;;8.00;33.94
49825;BME280;35714;55.708;37.478;2024-02-26T11:59:56;100261.78;;;8.63;32.86
49825;BME280;35714;55.708;37.478;2024-02-26T12:05:21;100264.91;;;9.55;31.71
49825;BME280;35714;55.708;37.478;2024-02-26T12:08:01;100262.84;;;9.91;31.45
49825;BME280;35714;55.708;37.478;2024-02-26T12:10:33;100261.91;;;10.51;30.10
49825;BME280;35714;55.708;37.478;2024-02-26T12:13:15;100260.16;;;10.70;29.27
49825;BME280;35714;55.708;37.478;2024-02-26T12:15:54;100276.47;;;10.63;29.07
49825;BME280;35714;55.708;37.478;2024-02-26T12:18:20;100250.75;;;10.00;29.56
49825;BME280;35714;55.708;37.478;2024-02-26T12:20:58;100251.78;;;9.32;30.71
49825;BME280;35714;55.708;37.478;2024-02-26T12:23:24;100257.28;;;8.77;31.94
49825;BME280;35714;55.708;37.478;2024-02-26T12:25:50;100263.44;;;8.64;31.71
49825;BME280;35714;55.708;37.478;2024-02-26T12:28:16;100268.03;;;7.94;32.54
49825;BME280;35714;55.708;37.478;2024-02-26T12:30:41;100270.47;;;7.17;34.00
49825;BME280;35714;55.708;37.478;2024-02-26T12:33:07;100267.50;;;6.91;34.53
49825;BME280;35714;55.708;37.478;2024-02-26T12:35:34;100263.50;;;6.35;35.61
49825;BME280;35714;55.708;37.478;2024-02-26T12:38:00;100257.50;;;5.95;36.25
49825;BME280;35714;55.708;37.478;2024-02-26T12:40:26;100261.75;;;5.74;36.67
49825;BME280;35714;55.708;37.478;2024-02-26T12:42:54;100257.31;;;5.82;36.63
49825;BME280;35714;55.708;37.478;2024-02-26T12:45:20;100251.34;;;5.71;36.65
49825;BME280;35714;55.708;37.478;2024-02-26T12:47:46;100252.00;;;5.73;36.62
49825;BME280;35714;55.708;37.478;2024-02-26T12:50:13;100255.31;;;5.60;36.73